createdAt,value
2022-12-27T00:01:01.928Z,7.45
2022-12-27T00:02:13.442Z,5.55
2022-12-27T00:03:16.039Z,8.98
2022-12-27T00:04:19.523Z,9.48
2022-12-27T00:05:22.191Z,8.13
2022-12-27T00:06:26.504Z,4.90
2022-12-27T00:07:35.412Z,8.32
2022-12-27T00:08:38.791Z,10.30
2022-12-27T00:09:41.421Z,10.15
2022-12-27T00:10:45.173Z,8.95
2022-12-27T00:11:47.755Z,10.20
2022-12-27T00:12:57.404Z,8.13
2022-12-27T00:14:00.339Z,9.60
2022-12-27T00:15:03.798Z,8.38
2022-12-27T00:16:06.931Z,8.65
2022-12-27T00:17:11.702Z,9.30
2022-12-27T00:18:20.381Z,12.48
2022-12-27T00:19:23.795Z,9.63
2022-12-27T00:20:26.393Z,13.32
2022-12-27T00:21:29.845Z,8.50
2022-12-27T00:22:32.373Z,12.93
2022-12-27T00:23:43.355Z,11.85
2022-12-27T00:24:46.761Z,7.40
2022-12-27T00:25:49.252Z,6.40
2022-12-27T00:26:52.694Z,10.63
2022-12-27T00:27:55.329Z,9.48
2022-12-27T00:29:05.364Z,9.90
2022-12-27T00:30:08.710Z,12.35
2022-12-27T00:31:12.623Z,10.70
2022-12-27T00:32:16.422Z,7.68
2022-12-27T00:33:19.853Z,7.82
2022-12-27T00:34:28.430Z,9.35
2022-12-27T00:35:31.873Z,9.48
2022-12-27T00:36:34.996Z,11.88
2022-12-27T00:37:38.446Z,6.35
2022-12-27T00:38:41.042Z,13.38
2022-12-27T00:39:51.384Z,10.80
2022-12-27T00:40:54.233Z,10.73
2022-12-27T00:41:57.633Z,14.45
2022-12-27T00:43:00.164Z,10.10
2022-12-27T00:44:03.584Z,9.82
2022-12-27T00:45:13.433Z,9.05
2022-12-27T00:46:17.171Z,13.55
2022-12-27T00:47:20.994Z,12.70
2022-12-27T00:48:24.512Z,14.40
2022-12-27T00:49:27.013Z,12.70
2022-12-27T00:50:37.383Z,11.52
2022-12-27T00:51:39.893Z,13.20
2022-12-27T00:52:49.453Z,12.55
2022-12-27T00:54:14.349Z,8.27
2022-12-27T00:55:17.055Z,9.90
2022-12-27T00:56:21.681Z,12.75
2022-12-27T00:57:24.219Z,12.43
2022-12-27T00:58:39.875Z,13.10
2022-12-27T00:59:43.238Z,15.23
2022-12-27T01:00:53.498Z,10.00
2022-12-27T01:01:57.087Z,15.05
2022-12-27T01:03:01.383Z,10.98
2022-12-27T01:04:06.050Z,11.93
2022-12-27T01:05:09.024Z,9.70
2022-12-27T01:06:20.405Z,14.48
2022-12-27T01:07:22.912Z,10.98
2022-12-27T01:08:26.344Z,8.90
2022-12-27T01:09:28.891Z,14.57
2022-12-27T01:10:32.695Z,9.13
2022-12-27T01:11:43.475Z,16.27
2022-12-27T01:12:46.903Z,13.30
2022-12-27T01:13:49.695Z,8.90
2022-12-27T01:14:53.124Z,12.18
2022-12-27T01:15:55.624Z,20.92
2022-12-27T01:17:05.429Z,20.05
2022-12-27T01:18:09.255Z,15.98
2022-12-27T01:19:13.177Z,14.48
2022-12-27T01:20:15.780Z,15.45
2022-12-27T01:21:19.877Z,12.48
2022-12-27T01:22:29.375Z,15.35
2022-12-27T01:23:33.197Z,18.60
2022-12-27T01:24:35.715Z,11.77
2022-12-27T01:25:39.124Z,9.65
2022-12-27T01:26:42.684Z,11.93
2022-12-27T01:27:51.381Z,14.02
2022-12-27T01:28:55.179Z,10.98
2022-12-27T01:29:57.681Z,11.38
2022-12-27T01:31:05.886Z,9.30
2022-12-27T01:32:08.405Z,19.83
2022-12-27T01:33:19.854Z,15.68
2022-12-27T01:34:23.265Z,9.55
2022-12-27T01:35:25.775Z,15.70
2022-12-27T01:36:30.133Z,11.65
2022-12-27T01:37:32.634Z,15.00
2022-12-27T01:38:42.395Z,16.10
2022-12-27T01:39:51.392Z,14.88
2022-12-27T01:40:54.802Z,15.80
2022-12-27T01:42:15.968Z,14.10
2022-12-27T01:43:19.004Z,24.15
2022-12-27T01:44:46.413Z,13.15
2022-12-27T01:45:49.918Z,16.00
2022-12-27T01:46:52.464Z,17.90
2022-12-27T01:47:58.811Z,9.90
2022-12-27T01:49:05.187Z,18.33
2022-12-27T01:50:21.437Z,11.35
2022-12-27T01:51:24.927Z,13.68
2022-12-27T01:52:32.210Z,9.80
2022-12-27T01:53:39.591Z,14.95
2022-12-27T01:55:02.374Z,14.45
2022-12-27T01:56:13.398Z,16.33
2022-12-27T01:57:16.265Z,14.80
2022-12-27T01:58:20.976Z,17.02
2022-12-27T01:59:23.515Z,11.68
2022-12-27T02:00:26.934Z,18.33
2022-12-27T02:01:40.584Z,16.90
2022-12-27T02:02:44.392Z,9.55
2022-12-27T02:03:48.643Z,16.33
2022-12-27T02:04:54.069Z,13.88
2022-12-27T02:06:05.384Z,15.73
2022-12-27T02:07:08.034Z,16.02
2022-12-27T02:08:24.424Z,23.90
2022-12-27T02:09:30.026Z,15.02
2022-12-27T02:10:33.774Z,17.80
2022-12-27T02:12:02.446Z,12.73
2022-12-27T02:13:07.132Z,12.55
2022-12-27T02:14:10.644Z,15.70
2022-12-27T02:15:14.064Z,13.70
2022-12-27T02:16:17.774Z,18.75
2022-12-27T02:17:28.414Z,17.95
2022-12-27T02:18:38.406Z,17.42
2022-12-27T02:19:46.964Z,15.70
2022-12-27T02:21:01.714Z,20.48
2022-12-27T02:22:11.866Z,10.20
2022-12-27T02:23:55.404Z,19.77
2022-12-27T02:25:07.485Z,15.02
2022-12-27T02:26:18.405Z,15.48
2022-12-27T02:27:35.396Z,9.95
2022-12-27T02:28:50.763Z,20.95
2022-12-27T02:30:03.868Z,12.65
2022-12-27T02:31:09.409Z,7.95
2022-12-27T02:32:21.406Z,15.70
2022-12-27T02:33:28.897Z,22.52
2022-12-27T02:34:35.895Z,11.38
2022-12-27T02:35:40.925Z,11.77
2022-12-27T02:36:46.081Z,15.73
2022-12-27T02:37:57.454Z,22.25
2022-12-27T02:39:01.635Z,10.90
2022-12-27T02:40:20.451Z,18.67
2022-12-27T02:41:41.444Z,15.63
2022-12-27T02:43:09.427Z,14.57
2022-12-27T02:44:36.993Z,16.38
2022-12-27T02:46:00.350Z,18.17
2022-12-27T02:47:21.804Z,12.13
2022-12-27T02:48:49.463Z,17.50
2022-12-27T02:50:10.355Z,16.92
2022-12-27T02:51:39.200Z,12.70
2022-12-27T02:53:03.965Z,15.65
2022-12-27T02:54:23.416Z,14.13
2022-12-27T02:55:37.040Z,15.20
2022-12-27T02:57:02.288Z,14.68
2022-12-27T02:58:14.900Z,20.02
2022-12-27T02:59:35.436Z,10.63
2022-12-27T03:01:01.748Z,10.98
2022-12-27T03:02:28.947Z,19.52
2022-12-27T03:03:44.054Z,15.20
2022-12-27T03:04:57.394Z,15.23
2022-12-27T03:06:42.437Z,16.70
2022-12-27T03:07:50.714Z,13.57
2022-12-27T03:08:57.501Z,17.08
2022-12-27T03:10:30.404Z,14.73
2022-12-27T03:12:02.410Z,12.45
2022-12-27T03:13:29.774Z,17.77
2022-12-27T03:14:55.012Z,18.58
2022-12-27T03:16:19.514Z,17.33
2022-12-27T03:17:26.153Z,15.02
2022-12-27T03:18:44.460Z,12.23
2022-12-27T03:20:07.733Z,17.92
2022-12-27T03:21:36.438Z,19.80
2022-12-27T03:22:58.826Z,23.15
2022-12-27T03:24:21.120Z,12.00
2022-12-27T03:25:31.306Z,17.13
2022-12-27T03:26:34.584Z,19.02
2022-12-27T03:27:45.426Z,19.55
2022-12-27T03:29:07.492Z,14.25
2022-12-27T03:30:30.364Z,15.27
2022-12-27T03:31:54.593Z,10.25
2022-12-27T03:33:23.428Z,12.93
2022-12-27T03:34:36.067Z,11.73
2022-12-27T03:35:42.901Z,12.50
2022-12-27T03:37:03.467Z,14.93
2022-12-27T03:38:06.249Z,14.02
2022-12-27T03:39:18.424Z,15.40
2022-12-27T03:40:32.425Z,13.50
2022-12-27T03:41:55.547Z,10.10
2022-12-27T03:43:11.787Z,15.73
2022-12-27T03:44:31.387Z,14.77
2022-12-27T03:45:56.688Z,11.65
2022-12-27T03:47:07.409Z,16.73
2022-12-27T03:48:11.913Z,13.05
2022-12-27T03:49:22.113Z,15.55
2022-12-27T03:50:33.432Z,14.13
2022-12-27T03:51:38.975Z,14.52
2022-12-27T03:52:44.248Z,13.88
2022-12-27T03:53:48.093Z,20.00
2022-12-27T03:55:10.413Z,18.75
2022-12-27T03:56:20.376Z,13.18
2022-12-27T03:57:24.583Z,12.82
2022-12-27T03:58:28.013Z,14.02
2022-12-27T03:59:30.586Z,15.00
2022-12-27T04:00:40.412Z,20.33
2022-12-27T04:01:44.292Z,18.75
2022-12-27T04:02:48.023Z,15.63
2022-12-27T04:03:50.598Z,17.25
2022-12-27T04:04:54.031Z,16.67
2022-12-27T04:06:03.443Z,18.58
2022-12-27T04:07:07.104Z,14.20
2022-12-27T04:08:28.375Z,14.27
2022-12-27T04:09:49.552Z,20.00
2022-12-27T04:11:17.394Z,16.05
2022-12-27T04:12:38.581Z,18.58
2022-12-27T04:14:06.464Z,19.58
2022-12-27T04:15:27.737Z,18.35
2022-12-27T04:16:48.998Z,13.93
2022-12-27T04:18:11.567Z,19.80
2022-12-27T04:19:45.467Z,11.80
2022-12-27T04:21:06.617Z,19.75
2022-12-27T04:22:27.393Z,16.00
2022-12-27T04:23:48.727Z,13.30
2022-12-27T04:25:16.433Z,16.70
2022-12-27T04:26:37.583Z,14.57
2022-12-27T04:28:05.413Z,14.80
2022-12-27T04:29:26.550Z,12.35
2022-12-27T04:30:47.703Z,18.02
2022-12-27T04:32:15.424Z,14.85
2022-12-27T04:33:37.831Z,13.80
2022-12-27T04:34:41.530Z,14.70
2022-12-27T04:35:44.014Z,16.73
2022-12-27T04:36:54.393Z,12.32
2022-12-27T04:38:03.427Z,15.32
2022-12-27T04:39:06.969Z,15.10
2022-12-27T04:40:28.006Z,16.27
2022-12-27T04:41:49.227Z,17.30
2022-12-27T04:43:16.468Z,11.38
2022-12-27T04:44:37.661Z,13.25
2022-12-27T04:45:58.962Z,17.70
2022-12-27T04:47:20.280Z,16.55
2022-12-27T04:48:49.423Z,12.70
2022-12-27T04:50:10.555Z,21.40
2022-12-27T04:51:31.475Z,15.63
2022-12-27T04:52:59.486Z,16.38
2022-12-27T04:54:20.653Z,16.58
2022-12-27T04:55:37.536Z,13.52
2022-12-27T04:56:40.041Z,16.17
2022-12-27T04:57:43.440Z,11.55
2022-12-27T04:59:07.438Z,23.80
2022-12-27T05:00:29.094Z,14.05
2022-12-27T05:01:50.499Z,11.02
2022-12-27T05:02:54.238Z,14.77
2022-12-27T05:03:58.114Z,14.85
2022-12-27T05:05:08.441Z,15.35
2022-12-27T05:06:10.974Z,17.92
2022-12-27T05:07:32.494Z,13.15
2022-12-27T05:08:53.802Z,13.70
2022-12-27T05:10:21.415Z,10.52
2022-12-27T05:11:42.514Z,13.02
2022-12-27T05:13:03.635Z,14.82
2022-12-27T05:14:09.337Z,16.55
2022-12-27T05:15:18.416Z,18.63
2022-12-27T05:16:21.949Z,14.05
2022-12-27T05:17:24.472Z,11.88
2022-12-27T05:18:28.563Z,17.88
2022-12-27T05:19:32.414Z,13.00
2022-12-27T05:20:42.486Z,13.90
2022-12-27T05:22:06.493Z,16.20
2022-12-27T05:23:28.571Z,22.88
2022-12-27T05:24:49.884Z,12.70
2022-12-27T05:25:59.435Z,14.35
2022-12-27T05:27:02.835Z,18.20
2022-12-27T05:28:05.973Z,12.82
2022-12-27T05:29:10.094Z,13.65
2022-12-27T05:30:12.962Z,17.65
2022-12-27T05:31:22.478Z,9.55
2022-12-27T05:32:24.997Z,11.80
2022-12-27T05:33:28.445Z,12.93
2022-12-27T05:34:32.247Z,12.75
2022-12-27T05:35:35.859Z,14.95
2022-12-27T05:36:44.437Z,16.05
2022-12-27T05:37:54.617Z,18.20
2022-12-27T05:38:58.372Z,14.18
2022-12-27T05:40:00.864Z,16.00
2022-12-27T05:41:04.752Z,12.20
2022-12-27T05:42:13.680Z,16.55
2022-12-27T05:43:17.072Z,9.30
2022-12-27T05:44:19.553Z,18.92
2022-12-27T05:45:22.977Z,14.80
2022-12-27T05:46:25.508Z,10.60
2022-12-27T05:47:35.464Z,11.68
2022-12-27T05:48:37.997Z,15.07
2022-12-27T05:49:42.713Z,10.18
2022-12-27T05:50:45.432Z,17.63
2022-12-27T05:51:55.440Z,14.55
2022-12-27T05:52:57.928Z,11.23
2022-12-27T05:54:01.355Z,14.32
2022-12-27T05:55:11.166Z,12.18
2022-12-27T05:56:22.434Z,15.57
2022-12-27T05:57:24.994Z,16.88
2022-12-27T05:58:35.448Z,17.30
2022-12-27T05:59:37.952Z,13.15
2022-12-27T06:00:41.384Z,16.35
2022-12-27T06:01:50.549Z,16.48
2022-12-27T06:02:54.154Z,12.13
2022-12-27T06:04:03.435Z,15.90
2022-12-27T06:05:08.523Z,14.52
2022-12-27T06:06:17.442Z,18.65
2022-12-27T06:07:20.894Z,14.05
2022-12-27T06:08:23.390Z,14.98
2022-12-27T06:09:27.072Z,24.08
2022-12-27T06:10:29.628Z,20.08
2022-12-27T06:11:39.474Z,16.48
2022-12-27T06:12:42.087Z,15.27
2022-12-27T06:13:46.433Z,9.63
2022-12-27T06:14:48.943Z,14.10
2022-12-27T06:15:52.377Z,15.30
2022-12-27T06:17:01.441Z,13.88
2022-12-27T06:18:06.694Z,14.20
2022-12-27T06:19:15.433Z,16.52
2022-12-27T06:20:27.431Z,16.35
2022-12-27T06:21:30.066Z,14.40
2022-12-27T06:22:33.475Z,14.93
2022-12-27T06:23:37.162Z,19.48
2022-12-27T06:24:40.576Z,15.60
2022-12-27T06:26:05.438Z,19.85
2022-12-27T06:27:14.944Z,15.65
2022-12-27T06:28:18.425Z,15.35
2022-12-27T06:29:20.940Z,18.23
2022-12-27T06:30:35.954Z,23.83
2022-12-27T06:31:38.891Z,15.80
2022-12-27T06:32:42.363Z,13.07
2022-12-27T06:33:45.213Z,17.38
2022-12-27T06:34:48.677Z,11.20
2022-12-27T06:35:59.505Z,13.50
2022-12-27T06:37:02.932Z,15.77
2022-12-27T06:38:05.474Z,16.42
2022-12-27T06:39:08.928Z,14.90
2022-12-27T06:40:11.956Z,17.67
2022-12-27T06:41:24.422Z,14.02
2022-12-27T06:42:26.901Z,14.93
2022-12-27T06:43:30.344Z,12.20
2022-12-27T06:44:32.860Z,15.38
2022-12-27T06:45:36.338Z,13.35
2022-12-27T06:46:45.492Z,17.17
2022-12-27T06:47:48.953Z,16.88
2022-12-27T06:48:51.803Z,11.93
2022-12-27T06:49:55.893Z,18.77
2022-12-27T06:50:59.713Z,15.63
2022-12-27T06:52:09.793Z,16.50
2022-12-27T06:53:12.265Z,11.10
2022-12-27T06:54:15.713Z,11.90
2022-12-27T06:55:24.706Z,15.77
2022-12-27T06:56:41.435Z,18.00
2022-12-27T06:57:50.435Z,12.68
2022-12-27T06:58:54.656Z,22.05
2022-12-27T06:59:57.203Z,17.38
2022-12-27T07:01:00.667Z,12.18
2022-12-27T07:02:03.369Z,11.45
2022-12-27T07:03:13.528Z,14.63
2022-12-27T07:04:17.052Z,8.10
2022-12-27T07:05:19.531Z,11.98
2022-12-27T07:06:24.960Z,10.63
2022-12-27T07:07:27.476Z,12.68
2022-12-27T07:08:37.464Z,11.57
2022-12-27T07:09:46.454Z,10.02
2022-12-27T07:10:49.885Z,10.52
2022-12-27T07:11:54.048Z,13.98
2022-12-27T07:12:57.815Z,16.05
2022-12-27T07:14:06.463Z,19.88
2022-12-27T07:15:10.314Z,13.68
2022-12-27T07:16:13.724Z,13.50
2022-12-27T07:17:17.251Z,12.27
2022-12-27T07:18:19.927Z,14.50
2022-12-27T07:19:29.446Z,12.20
2022-12-27T07:20:31.908Z,19.63
2022-12-27T07:21:36.627Z,12.23
2022-12-27T07:22:39.223Z,12.07
2022-12-27T07:23:42.981Z,11.30
2022-12-27T07:24:52.458Z,13.10
2022-12-27T07:25:55.885Z,19.45
2022-12-27T07:26:59.316Z,10.68
2022-12-27T07:28:01.839Z,9.25
2022-12-27T07:29:05.610Z,12.90
2022-12-27T07:30:15.455Z,15.30
2022-12-27T07:31:20.212Z,9.25
2022-12-27T07:32:22.795Z,9.32
2022-12-27T07:33:26.447Z,11.10
2022-12-27T07:34:28.961Z,12.93
2022-12-27T07:35:43.478Z,17.98
2022-12-27T07:36:49.915Z,10.75
2022-12-27T07:37:52.600Z,12.57
2022-12-27T07:38:56.157Z,13.07
2022-12-27T07:39:58.630Z,16.88
2022-12-27T07:41:08.466Z,10.75
2022-12-27T07:42:25.470Z,7.70
2022-12-27T07:43:30.352Z,13.00
2022-12-27T07:44:33.792Z,7.47
2022-12-27T07:45:42.480Z,14.25
2022-12-27T07:46:52.514Z,13.13
2022-12-27T07:47:55.056Z,17.73
2022-12-27T07:48:59.217Z,9.43
2022-12-27T07:50:01.717Z,10.07
2022-12-27T07:51:06.567Z,8.90
2022-12-27T07:52:16.413Z,11.48
2022-12-27T07:53:19.830Z,13.73
2022-12-27T07:54:23.282Z,14.55
2022-12-27T07:55:32.677Z,13.45
2022-12-27T07:56:49.933Z,10.88
2022-12-27T07:57:52.421Z,12.07
2022-12-27T07:58:56.352Z,11.63
2022-12-27T07:59:58.826Z,14.52
2022-12-27T08:01:02.313Z,15.30
2022-12-27T08:02:11.498Z,8.73
2022-12-27T08:03:14.991Z,12.02
2022-12-27T08:04:17.496Z,16.30
2022-12-27T08:05:25.961Z,14.63
2022-12-27T08:06:37.475Z,14.75
2022-12-27T08:07:42.567Z,14.07
2022-12-27T08:08:51.453Z,16.23
2022-12-27T08:09:54.873Z,16.13
2022-12-27T08:11:03.581Z,10.27
2022-12-27T08:12:15.451Z,21.33
2022-12-27T08:13:18.898Z,15.18
2022-12-27T08:14:27.469Z,15.73
2022-12-27T08:15:30.932Z,14.18
2022-12-27T08:16:33.489Z,15.57
2022-12-27T08:17:43.502Z,15.05
2022-12-27T08:18:46.317Z,15.55
2022-12-27T08:19:49.963Z,14.18
2022-12-27T08:20:52.622Z,15.75
2022-12-27T08:21:56.166Z,13.70
2022-12-27T08:23:06.486Z,17.80
2022-12-27T08:24:10.049Z,10.25
2022-12-27T08:25:12.733Z,17.60
2022-12-27T08:26:16.220Z,13.15
2022-12-27T08:27:22.241Z,18.27
2022-12-27T08:28:32.466Z,15.15
2022-12-27T08:29:35.113Z,9.77
2022-12-27T08:30:38.576Z,13.75
2022-12-27T08:31:41.127Z,13.02
2022-12-27T08:32:51.464Z,12.85
2022-12-27T08:34:01.478Z,13.00
2022-12-27T08:35:25.037Z,18.08
2022-12-27T08:37:50.674Z,19.58
2022-12-27T08:39:03.529Z,15.93
2022-12-27T08:40:06.434Z,15.63
2022-12-27T08:41:09.862Z,12.20
2022-12-27T08:42:13.301Z,15.00
2022-12-27T08:43:16.963Z,12.38
2022-12-27T08:44:26.534Z,16.45
2022-12-27T08:45:29.955Z,12.82
2022-12-27T08:46:32.478Z,13.38
2022-12-27T08:47:35.945Z,11.25
2022-12-27T08:48:38.465Z,10.82
2022-12-27T08:49:48.465Z,10.63
2022-12-27T08:50:58.450Z,10.30
2022-12-27T08:52:01.913Z,13.25
2022-12-27T08:53:05.659Z,13.68
2022-12-27T08:54:10.913Z,13.40
2022-12-27T08:55:26.528Z,7.20
2022-12-27T08:56:36.701Z,10.57
2022-12-27T08:57:39.216Z,12.40
2022-12-27T08:58:42.679Z,10.10
2022-12-27T08:59:46.101Z,14.63
2022-12-27T09:00:55.463Z,12.27
2022-12-27T09:01:59.176Z,14.80
2022-12-27T09:03:01.823Z,12.20
2022-12-27T09:04:05.577Z,11.05
2022-12-27T09:05:08.257Z,10.73
2022-12-27T09:06:19.547Z,13.82
2022-12-27T09:07:22.969Z,7.43
2022-12-27T09:08:25.491Z,12.10
2022-12-27T09:09:30.313Z,10.00
2022-12-27T09:10:33.024Z,10.98
2022-12-27T09:11:43.540Z,8.43
2022-12-27T09:12:46.077Z,8.95
2022-12-27T09:13:49.719Z,7.78
2022-12-27T09:14:52.243Z,9.85
2022-12-27T09:15:55.695Z,10.00
2022-12-27T09:17:05.432Z,11.43
2022-12-27T09:18:15.467Z,13.88
2022-12-27T09:19:18.060Z,10.25
2022-12-27T09:20:21.494Z,11.07
2022-12-27T09:21:31.467Z,10.93
2022-12-27T09:22:41.530Z,9.63
2022-12-27T09:23:45.306Z,14.45
2022-12-27T09:24:50.068Z,12.30
2022-12-27T09:25:52.555Z,12.07
2022-12-27T09:26:55.980Z,12.80
2022-12-27T09:28:06.484Z,7.25
2022-12-27T09:29:10.055Z,10.68
2022-12-27T09:30:12.880Z,12.40
2022-12-27T09:31:16.807Z,11.20
2022-12-27T09:32:19.349Z,8.95
2022-12-27T09:33:29.476Z,11.20
2022-12-27T09:34:33.021Z,10.20
2022-12-27T09:35:38.647Z,7.63
2022-12-27T09:36:42.422Z,8.65
2022-12-27T09:37:44.975Z,8.90
2022-12-27T09:38:55.477Z,10.02
2022-12-27T09:39:59.297Z,8.50
2022-12-27T09:41:03.834Z,11.13
2022-12-27T09:42:47.664Z,8.57
2022-12-27T09:43:46.448Z,12.38
2022-12-27T09:44:51.821Z,9.18
2022-12-27T09:45:57.639Z,15.48
2022-12-27T09:47:01.931Z,12.02
2022-12-27T09:48:07.544Z,11.93
2022-12-27T09:49:17.459Z,10.45
2022-12-27T09:50:22.124Z,15.77
2022-12-27T09:51:27.121Z,13.18
2022-12-27T09:52:35.207Z,15.18
2022-12-27T09:53:48.467Z,17.20
2022-12-27T09:55:01.072Z,11.68
2022-12-27T09:56:19.737Z,11.63
2022-12-27T09:57:39.594Z,10.60
2022-12-27T09:58:51.522Z,10.88
2022-12-27T09:59:58.772Z,8.15
2022-12-27T10:01:01.498Z,13.50
2022-12-27T10:02:06.089Z,9.90
2022-12-27T10:03:10.014Z,10.73
2022-12-27T10:04:21.525Z,10.90
2022-12-27T10:05:26.109Z,8.98
2022-12-27T10:06:45.123Z,10.82
2022-12-27T10:07:52.568Z,7.78
2022-12-27T10:08:59.343Z,8.15
2022-12-27T10:10:11.517Z,9.95
2022-12-27T10:11:35.105Z,8.70
2022-12-27T10:12:57.115Z,7.65
2022-12-27T10:14:03.524Z,11.85
2022-12-27T10:15:21.673Z,7.78
2022-12-27T10:16:29.212Z,8.73
2022-12-27T10:17:42.299Z,6.35
2022-12-27T10:18:50.072Z,11.63
2022-12-27T10:19:56.683Z,9.55
2022-12-27T10:21:09.497Z,6.68
2022-12-27T10:22:20.153Z,13.50
2022-12-27T10:23:24.309Z,16.05
2022-12-27T10:24:31.224Z,20.45
2022-12-27T10:25:34.899Z,6.93
2022-12-27T10:26:47.484Z,15.00
2022-12-27T10:27:52.016Z,9.98
2022-12-27T10:28:57.349Z,10.45
2022-12-27T10:30:03.324Z,21.92
2022-12-27T10:31:12.521Z,14.52
2022-12-27T10:32:17.736Z,18.08
2022-12-27T10:33:27.506Z,9.95
2022-12-27T10:34:30.920Z,14.10
2022-12-27T10:35:33.466Z,13.68
2022-12-27T10:36:36.967Z,14.40
2022-12-27T10:37:39.497Z,19.67
2022-12-27T10:38:49.538Z,20.02
2022-12-27T10:39:53.125Z,21.40
2022-12-27T10:41:00.038Z,20.75
2022-12-27T10:42:09.777Z,16.65
2022-12-27T10:43:16.753Z,16.52
2022-12-27T10:44:25.497Z,13.88
2022-12-27T10:45:33.682Z,18.10
2022-12-27T10:46:37.191Z,19.85
2022-12-27T10:47:39.681Z,12.50
2022-12-27T10:49:19.352Z,14.38
2022-12-27T10:50:18.504Z,16.23
2022-12-27T10:51:23.521Z,15.65
2022-12-27T10:52:27.014Z,18.65
2022-12-27T10:53:31.814Z,14.63
2022-12-27T10:54:41.473Z,17.00
2022-12-27T10:55:50.711Z,13.90
2022-12-27T10:57:24.465Z,15.00
2022-12-27T10:58:36.985Z,12.90
2022-12-27T10:59:46.479Z,14.90
2022-12-27T11:00:54.202Z,12.05
2022-12-27T11:02:23.580Z,11.25
2022-12-27T11:03:26.756Z,7.63
2022-12-27T11:04:31.113Z,12.27
2022-12-27T11:05:35.915Z,8.55
2022-12-27T11:06:39.669Z,11.45
2022-12-27T11:07:50.485Z,11.43
2022-12-27T11:08:55.198Z,12.90
2022-12-27T11:10:06.445Z,12.05
2022-12-27T11:11:17.423Z,11.23
2022-12-27T11:12:28.510Z,10.02
2022-12-27T11:13:33.249Z,16.02
2022-12-27T11:14:37.479Z,10.82
2022-12-27T11:15:42.752Z,18.70
2022-12-27T11:16:45.895Z,14.68
2022-12-27T11:17:57.488Z,11.05
2022-12-27T11:19:01.971Z,13.75
2022-12-27T11:20:09.342Z,11.55
2022-12-27T11:21:22.498Z,32.20
2022-12-27T11:22:31.029Z,20.70
2022-12-27T11:23:42.599Z,54.65
2022-12-27T11:24:47.979Z,51.63
2022-12-27T11:25:54.795Z,32.63
2022-12-27T11:27:00.186Z,22.25
2022-12-27T11:28:10.486Z,23.90
2022-12-27T11:29:18.667Z,11.07
2022-12-27T11:30:27.636Z,8.23
2022-12-27T11:31:32.615Z,7.70
2022-12-27T11:32:36.659Z,11.18
2022-12-27T11:33:47.467Z,8.38
2022-12-27T11:34:52.965Z,12.70
2022-12-27T11:35:57.573Z,10.48
2022-12-27T11:37:05.517Z,10.77
2022-12-27T11:38:23.506Z,6.82
2022-12-27T11:39:40.012Z,7.53
2022-12-27T11:40:43.441Z,9.05
2022-12-27T11:41:48.517Z,10.52
2022-12-27T11:42:52.306Z,6.97
2022-12-27T11:44:04.493Z,12.23
2022-12-27T11:45:13.263Z,6.97
2022-12-27T11:46:20.116Z,9.50
2022-12-27T11:47:28.394Z,6.63
2022-12-27T11:48:37.508Z,11.63
2022-12-27T11:49:49.475Z,9.50
2022-12-27T11:51:02.731Z,10.38
2022-12-27T11:52:20.056Z,12.80
2022-12-27T11:53:34.153Z,11.77
2022-12-27T11:54:45.718Z,6.10
2022-12-27T11:56:04.459Z,7.03
2022-12-27T11:57:12.272Z,3.97
2022-12-27T11:58:25.900Z,7.43
2022-12-27T11:59:39.595Z,4.82
2022-12-27T12:00:53.505Z,9.75
2022-12-27T12:02:15.466Z,7.47
2022-12-27T12:03:36.763Z,3.83
2022-12-27T12:04:58.700Z,7.47
2022-12-27T12:06:16.458Z,8.63
2022-12-27T12:07:26.531Z,7.25
2022-12-27T12:08:50.608Z,8.40
2022-12-27T12:10:02.713Z,10.65
2022-12-27T12:11:12.139Z,4.72
2022-12-27T12:12:37.519Z,4.28
2022-12-27T12:13:49.472Z,5.68
2022-12-27T12:15:07.109Z,9.75
2022-12-27T12:16:28.170Z,7.95
2022-12-27T12:17:55.450Z,8.35
2022-12-27T12:19:08.048Z,6.28
2022-12-27T12:20:28.832Z,4.88
2022-12-27T12:21:35.655Z,9.00
2022-12-27T12:22:46.053Z,5.85
2022-12-27T12:24:02.467Z,3.78
2022-12-27T12:25:27.239Z,4.97
2022-12-27T12:26:35.913Z,9.82
2022-12-27T12:27:44.466Z,6.53
2022-12-27T12:29:13.473Z,4.88
2022-12-27T12:30:29.149Z,5.57
2022-12-27T12:31:48.585Z,5.85
2022-12-27T12:33:01.150Z,4.90
2022-12-27T12:34:15.313Z,5.65
2022-12-27T12:35:32.475Z,4.38
2022-12-27T12:36:49.250Z,6.10
2022-12-27T12:38:03.569Z,3.92
2022-12-27T12:39:09.264Z,5.45
2022-12-27T12:40:28.477Z,5.28
2022-12-27T12:41:50.636Z,4.22
2022-12-27T12:42:58.030Z,4.78
2022-12-27T12:44:14.730Z,6.28
2022-12-27T12:45:39.525Z,8.80
2022-12-27T12:46:47.665Z,8.02
2022-12-27T12:47:56.308Z,7.28
2022-12-27T12:49:08.572Z,7.78
2022-12-27T12:50:29.495Z,13.38
2022-12-27T12:51:39.233Z,11.18
2022-12-27T12:52:51.132Z,11.68
2022-12-27T12:54:01.076Z,9.45
2022-12-27T12:55:19.493Z,7.93
2022-12-27T12:56:39.484Z,9.65
2022-12-27T12:57:53.632Z,9.45
2022-12-27T12:59:02.814Z,8.82
2022-12-27T13:00:12.879Z,7.18
2022-12-27T13:01:33.619Z,5.57
2022-12-27T13:02:55.121Z,5.78
2022-12-27T13:04:06.164Z,5.40
2022-12-27T13:05:14.663Z,6.43
2022-12-27T13:06:30.499Z,3.40
2022-12-27T13:07:47.489Z,5.70
2022-12-27T13:08:58.322Z,7.05
2022-12-27T13:10:14.350Z,14.00
2022-12-27T13:11:33.149Z,8.65
2022-12-27T13:12:50.558Z,8.80
2022-12-27T13:14:02.446Z,6.35
2022-12-27T13:15:17.070Z,6.72
2022-12-27T13:16:25.897Z,8.13
2022-12-27T13:17:33.595Z,7.22
2022-12-27T13:18:47.519Z,9.73
2022-12-27T13:20:02.462Z,8.05
2022-12-27T13:21:10.701Z,7.28
2022-12-27T13:22:18.393Z,7.72
2022-12-27T13:23:28.767Z,10.00
2022-12-27T13:24:45.616Z,7.28
2022-12-27T13:25:53.957Z,10.00
2022-12-27T13:27:01.579Z,4.50
2022-12-27T13:28:10.807Z,5.47
2022-12-27T13:29:31.533Z,6.85
2022-12-27T13:30:40.077Z,9.20
2022-12-27T13:31:46.413Z,10.50
2022-12-27T13:33:02.858Z,6.07
2022-12-27T13:34:14.326Z,7.88
2022-12-27T13:35:33.558Z,7.72
2022-12-27T13:36:39.741Z,5.03
2022-12-27T13:37:49.144Z,5.80
2022-12-27T13:39:02.741Z,5.25
2022-12-27T13:40:33.046Z,10.50
2022-12-27T13:41:46.517Z,9.85
2022-12-27T13:43:01.338Z,14.65
2022-12-27T13:44:23.345Z,14.80
2022-12-27T13:45:39.640Z,27.90
2022-12-27T13:47:16.496Z,12.75
2022-12-27T13:48:36.631Z,14.85
2022-12-27T13:49:49.310Z,12.25
2022-12-27T13:51:07.690Z,8.90
2022-12-27T13:52:23.589Z,10.32
2022-12-27T13:53:37.603Z,7.32
2022-12-27T13:55:01.006Z,9.32
2022-12-27T13:56:53.383Z,12.95
2022-12-27T13:58:13.490Z,8.77
2022-12-27T13:59:34.711Z,9.52
2022-12-27T14:00:41.204Z,10.10
2022-12-27T14:02:03.317Z,13.63
2022-12-27T14:03:27.541Z,7.43
2022-12-27T14:04:47.435Z,12.20
2022-12-27T14:06:11.786Z,13.95
2022-12-27T14:07:24.544Z,6.50
2022-12-27T14:08:41.556Z,9.18
2022-12-27T14:09:57.433Z,11.50
2022-12-27T14:11:01.598Z,11.57
2022-12-27T14:12:10.035Z,7.05
2022-12-27T14:13:14.016Z,21.33
2022-12-27T14:14:24.511Z,16.95
2022-12-27T14:15:30.655Z,12.93
2022-12-27T14:16:38.086Z,8.43
2022-12-27T14:17:44.449Z,9.57
2022-12-27T14:18:53.548Z,5.80
2022-12-27T14:20:10.623Z,10.05
2022-12-27T14:21:25.613Z,9.05
2022-12-27T14:22:53.825Z,6.55
2022-12-27T14:24:04.077Z,8.02
2022-12-27T14:25:31.560Z,6.82
2022-12-27T14:26:59.113Z,3.13
2022-12-27T14:28:27.105Z,5.47
2022-12-27T14:29:41.467Z,7.00
2022-12-27T14:31:02.560Z,5.15
2022-12-27T14:32:25.803Z,8.07
2022-12-27T14:33:54.509Z,6.20
2022-12-27T14:35:16.755Z,3.38
2022-12-27T14:36:52.537Z,3.08
2022-12-27T14:38:20.544Z,10.75
2022-12-27T14:39:42.777Z,9.60
2022-12-27T14:41:00.640Z,4.20
2022-12-27T14:42:17.599Z,7.00
2022-12-27T14:43:46.515Z,7.97
2022-12-27T14:45:09.274Z,9.73
2022-12-27T14:46:23.868Z,6.28
2022-12-27T14:47:45.502Z,5.35
2022-12-27T14:49:06.817Z,7.45
2022-12-27T14:50:37.511Z,6.80
2022-12-27T14:52:01.068Z,8.13
2022-12-27T14:53:25.283Z,8.07
2022-12-27T14:54:47.104Z,7.70
2022-12-27T14:56:11.581Z,4.88
2022-12-27T14:57:33.824Z,4.82
2022-12-27T14:58:57.614Z,5.43
2022-12-27T15:00:04.243Z,2.63
2022-12-27T15:01:10.597Z,9.98
2022-12-27T15:02:38.588Z,5.88
2022-12-27T15:04:01.017Z,7.30
2022-12-27T15:05:18.511Z,5.88
2022-12-27T15:06:34.528Z,7.72
2022-12-27T15:07:41.054Z,6.32
2022-12-27T15:08:55.536Z,6.68
2022-12-27T15:10:03.085Z,4.38
2022-12-27T15:11:20.606Z,4.93
2022-12-27T15:12:27.846Z,4.32
2022-12-27T15:13:44.718Z,5.80
2022-12-27T15:15:06.003Z,5.93
2022-12-27T15:16:15.653Z,4.80
2022-12-27T15:17:21.169Z,10.77
2022-12-27T15:18:42.564Z,8.63